Time;durP1;ratioP1;P1;durP2;ratioP2;P2;SDS_P1;SDS_P2;PMS_P1;PMS_P2;Temp;Humidity;BMP_temperature;BMP_pressure;BME280_temperature;BME280_humidity;BME280_pressure;Samples;Min_cycle;Max_cycle;Signal;HPM_P1;HPM_P2
2021/12/19 00:11:44;;;;;;;4.67;2.17;;;;;;;7.69;98.87;101014.53;2855034;83;21573;-73
2021/12/19 00:15:46;;;;;;;7.33;3.35;;;;;;;7.69;98.78;101003.94;2936709;81;20999;-73
2021/12/19 00:19:48;;;;;;;18.45;3.85;;;;;;;7.70;98.87;100989.75;2855071;83;21643;-74
2021/12/19 00:23:52;;;;;;;6.65;3.80;;;;;;;7.80;98.48;100986.09;2937037;81;21043;-74
2021/12/19 00:27:54;;;;;;;5.95;4.00;;;;;;;7.84;98.39;100985.80;2937036;81;20948;-71
2021/12/19 00:31:55;;;;;;;5.60;4.33;;;;;;;7.80;98.34;100980.30;2855304;82;21264;-72
2021/12/19 00:35:58;;;;;;;4.75;3.58;;;;;;;7.89;98.00;100959.04;2937009;81;21043;-74
2021/12/19 00:39:59;;;;;;;3.98;2.67;;;;;;;7.80;98.24;100955.14;2855159;83;21052;-71
2021/12/19 00:44:11;;;;;;;3.45;2.35;;;;;;;8.00;97.39;100951.77;2936737;81;21014;-74
2021/12/19 00:48:13;;;;;;;3.20;2.65;;;;;;;8.01;96.93;100952.15;2936718;81;20995;-71
2021/12/19 00:52:15;;;;;;;6.15;3.10;;;;;;;8.12;96.52;100943.09;2860674;82;21031;-73
2021/12/19 00:56:17;;;;;;;4.25;2.95;;;;;;;8.07;96.40;100926.62;2864341;82;21094;-73
2021/12/19 01:00:24;;;;;;;4.75;4.00;;;;;;;8.04;96.32;100938.70;2864265;83;21074;-72
2021/12/19 01:04:26;;;;;;;3.95;3.55;;;;;;;8.12;96.08;100928.97;2864571;82;21022;-72
2021/12/19 01:08:28;;;;;;;5.80;3.92;;;;;;;8.11;96.41;100934.76;2864568;82;21069;-73
2021/12/19 01:12:31;;;;;;;5.35;4.28;;;;;;;8.04;96.38;100920.16;2864494;83;21011;-72
2021/12/19 01:16:33;;;;;;;5.37;4.35;;;;;;;7.97;96.71;100927.66;2864326;82;21054;-74
2021/12/19 01:20:38;;;;;;;7.25;3.80;;;;;;;8.07;96.40;100907.20;2864345;82;21047;-71
2021/12/19 01:24:40;;;;;;;8.53;5.60;;;;;;;8.06;96.39;100909.48;2864399;83;21455;-73
2021/12/19 01:28:42;;;;;;;9.30;5.45;;;;;;;8.03;96.57;100894.61;2864503;82;21094;-73
2021/12/19 01:32:45;;;;;;;5.25;4.00;;;;;;;8.07;96.38;100872.30;2864483;82;20980;-71
2021/12/19 01:36:47;;;;;;;6.95;5.12;;;;;;;8.09;95.99;100867.76;2864209;82;21028;-74
2021/12/19 01:40:49;;;;;;;4.75;4.15;;;;;;;8.12;95.94;100845.04;2864611;83;21047;-73
2021/12/19 01:44:51;;;;;;;9.03;5.50;;;;;;;8.07;96.20;100859.05;2864341;83;21074;-74
2021/12/19 01:48:53;;;;;;;5.75;4.97;;;;;;;8.07;96.05;100872.30;2864603;82;21043;-73
2021/12/19 01:52:55;;;;;;;14.85;6.65;;;;;;;8.13;95.87;100841.44;2857963;83;21004;-72
2021/12/19 01:56:56;;;;;;;7.25;5.90;;;;;;;8.09;95.81;100855.84;2936666;81;21004;-73
2021/12/19 02:00:58;;;;;;;8.50;5.75;;;;;;;7.97;96.59;100844.66;2854547;83;21051;-74
2021/12/19 02:05:00;;;;;;;7.33;5.75;;;;;;;8.04;96.15;100826.10;2854811;83;21026;-72
2021/12/19 02:09:06;;;;;;;12.35;7.20;;;;;;;8.04;96.23;100827.42;2936341;81;21035;-74
2021/12/19 02:13:08;;;;;;;9.53;6.55;;;;;;;7.96;96.26;100815.14;2908159;81;21448;-73
2021/12/19 02:17:09;;;;;;;9.53;6.75;;;;;;;8.06;95.91;100803.04;2936037;81;21035;-72
2021/12/19 02:21:11;;;;;;;10.70;8.05;;;;;;;8.03;96.13;100807.18;2854684;83;21038;-72
2021/12/19 02:25:14;;;;;;;10.48;7.95;;;;;;;8.05;95.86;100804.45;2936160;81;21050;-75
2021/12/19 02:29:16;;;;;;;10.48;9.08;;;;;;;8.15;95.48;100797.14;2936501;81;21035;-73
2021/12/19 02:33:22;;;;;;;12.30;8.85;;;;;;;8.12;95.43;100792.04;2936275;81;20943;-75
2021/12/19 02:50:00;;;;;;;11.88;5.50;;;;;;;8.14;92.24;100710.64;2936597;81;21555;-72
2021/12/19 02:54:04;;;;;;;16.55;6.05;;;;;;;8.09;91.39;100740.57;2862710;82;21047;-71
2021/12/19 02:58:06;;;;;;;9.48;5.87;;;;;;;8.08;90.90;100716.81;2864005;82;21007;-73
2021/12/19 03:02:07;;;;;;;10.40;5.30;;;;;;;8.09;90.40;100711.42;2863803;82;21007;-72
2021/12/19 03:06:09;;;;;;;6.45;4.25;;;;;;;8.05;90.15;100707.73;2863985;83;21043;-74
2021/12/19 03:18:33;;;;;;;7.35;4.42;;;;;;;7.94;89.37;100691.21;2863824;82;22401;-73
2021/12/19 03:22:34;;;;;;;11.70;6.17;;;;;;;7.90;89.66;100652.63;2863580;82;21058;-73
2021/12/19 03:26:36;;;;;;;14.25;6.22;;;;;;;7.89;90.02;100662.36;2863700;83;21606;-72
2021/12/19 03:30:41;;;;;;;8.45;5.28;;;;;;;7.88;89.83;100647.91;2863668;83;21028;-74
2021/12/19 03:34:42;;;;;;;11.63;6.33;;;;;;;7.76;89.80;100656.14;2863486;83;20995;-75
2021/12/19 03:38:45;;;;;;;6.22;4.78;;;;;;;7.82;90.09;100640.72;2863191;82;21014;-74
2021/12/19 03:42:50;;;;;;;8.60;6.03;;;;;;;7.85;90.17;100672.78;2863259;82;21042;-74
2021/12/19 03:46:53;;;;;;;8.40;5.97;;;;;;;7.86;90.68;100660.78;2863516;82;21051;-75
2021/12/19 03:50:55;;;;;;;10.60;6.30;;;;;;;7.79;91.05;100652.84;2863371;82;21023;-73
2021/12/19 03:54:57;;;;;;;11.88;6.75;;;;;;;7.69;90.75;100620.80;2863461;82;21023;-73
2021/12/19 03:58:59;;;;;;;6.58;5.80;;;;;;;7.75;91.17;100621.34;2863371;82;20987;-73
2021/12/19 04:03:06;;;;;;;8.48;5.22;;;;;;;7.72;91.23;100606.03;2863361;82;21058;-73
2021/12/19 04:07:08;;;;;;;11.03;7.08;;;;;;;7.72;90.39;100628.54;2863251;83;21023;-74
2021/12/19 04:11:10;;;;;;;6.78;4.78;;;;;;;7.75;89.44;100620.89;2863595;83;21050;-74
2021/12/19 04:15:11;;;;;;;11.12;5.10;;;;;;;7.80;89.27;100601.56;2863302;82;21066;-73
2021/12/19 04:19:13;;;;;;;9.03;4.90;;;;;;;7.74;88.94;100618.32;2863283;83;21063;-74
2021/12/19 04:23:15;;;;;;;9.30;4.33;;;;;;;7.78;88.64;100582.77;2863622;82;21064;-74
2021/12/19 04:27:18;;;;;;;8.98;5.70;;;;;;;7.85;88.65;100606.08;2863431;82;21011;-74
2021/12/19 04:31:20;;;;;;;9.03;4.83;;;;;;;7.88;88.73;100586.50;2863489;82;21055;-74
2021/12/19 04:35:22;;;;;;;7.10;5.17;;;;;;;7.82;89.35;100589.06;2863785;82;21039;-73
2021/12/19 04:39:41;;;;;;;11.12;6.12;;;;;;;7.86;89.47;100590.59;2863593;82;21015;-72
2021/12/19 05:00:37;;;;;;;8.80;5.30;;;;;;;7.88;89.00;100596.27;2863488;82;21042;-73
2021/12/19 05:17:10;;;;;;;12.28;5.70;;;;;;;7.93;88.67;100583.06;2864270;82;21007;-74
2021/12/19 05:21:16;;;;;;;8.48;5.40;;;;;;;7.84;89.05;100597.77;2863959;82;20996;-71
2021/12/19 05:25:17;;;;;;;11.63;6.17;;;;;;;7.94;88.73;100621.84;2864743;82;21047;-71
2021/12/19 05:29:19;;;;;;;7.40;6.23;;;;;;;7.98;88.38;100588.06;2863943;82;21051;-74
2021/12/19 05:33:21;;;;;;;9.85;5.90;;;;;;;7.98;87.85;100610.59;2864226;83;21010;-71
2021/12/19 05:45:53;;;;;;;7.58;6.35;;;;;;;8.04;87.59;100594.27;2914159;81;21447;-74
2021/12/19 05:49:55;;;;;;;5.72;4.97;;;;;;;8.05;87.75;100602.59;2913992;81;21046;-72
2021/12/19 05:53:57;;;;;;;9.63;6.22;;;;;;;8.04;87.26;100609.34;2905188;81;21050;-74
2021/12/19 05:57:59;;;;;;;8.28;6.08;;;;;;;8.03;87.45;100598.36;2900001;82;21058;-74
2021/12/19 06:02:01;;;;;;;11.90;6.03;;;;;;;8.05;87.55;100616.33;2900007;82;21042;-74
2021/12/19 06:06:03;;;;;;;12.80;5.40;;;;;;;8.01;87.52;100587.86;2899790;82;21023;-72
2021/12/19 06:10:06;;;;;;;6.78;4.60;;;;;;;7.98;87.54;100607.47;2961189;80;21039;-74
2021/12/19 06:14:08;;;;;;;9.63;4.53;;;;;;;7.95;87.79;100579.83;2962017;80;21057;-74
2021/12/19 06:18:10;;;;;;;8.58;4.50;;;;;;;7.86;89.50;100581.32;2962008;80;20975;-73
2021/12/19 06:22:12;;;;;;;5.85;4.35;;;;;;;7.81;89.24;100554.27;2961881;80;21038;-74
2021/12/19 06:26:14;;;;;;;14.38;6.47;;;;;;;7.79;89.87;100561.96;2961973;80;21015;-75
2021/12/19 06:30:16;;;;;;;10.25;4.22;;;;;;;7.68;89.94;100593.12;2961927;80;20959;-72
2021/12/19 06:34:18;;;;;;;5.28;3.72;;;;;;;7.66;90.14;100585.72;2961745;80;21077;-72
2021/12/19 06:38:19;;;;;;;10.35;5.37;;;;;;;7.66;90.52;100606.44;2962093;80;21098;-71
2021/12/19 06:42:21;;;;;;;8.43;4.22;;;;;;;7.69;90.98;100568.33;2961892;80;21311;-73
2021/12/19 06:46:23;;;;;;;6.05;3.92;;;;;;;7.62;91.17;100577.15;2962250;80;20991;-75
2021/12/19 06:50:25;;;;;;;11.93;5.25;;;;;;;7.52;91.54;100564.98;2962134;80;21065;-72
2021/12/19 06:54:27;;;;;;;9.25;4.40;;;;;;;7.55;91.86;100574.50;2968469;80;21003;-73
2021/12/19 06:58:29;;;;;;;9.13;3.55;;;;;;;7.46;92.01;100551.28;2970999;80;21034;-74
2021/12/19 07:02:31;;;;;;;9.30;4.30;;;;;;;7.41;92.13;100535.23;2970888;80;20923;-75
2021/12/19 07:06:33;;;;;;;6.95;3.45;;;;;;;7.43;92.63;100549.67;2970989;80;21014;-73
2021/12/19 07:10:35;;;;;;;8.23;4.03;;;;;;;7.38;93.16;100543.84;2970957;80;20987;-74
2021/12/19 07:14:37;;;;;;;7.20;4.30;;;;;;;7.36;92.97;100549.70;2971175;80;21022;-74
2021/12/19 07:18:39;;;;;;;5.10;3.90;;;;;;;7.39;93.19;100560.09;2970872;80;21050;-73
2021/12/19 07:22:41;;;;;;;5.15;3.85;;;;;;;7.38;92.99;100583.08;2969970;80;21523;-73
2021/12/19 07:26:43;;;;;;;5.78;3.00;;;;;;;7.35;92.98;100567.37;2971635;80;21062;-73
2021/12/19 07:30:45;;;;;;;4.33;3.55;;;;;;;7.47;92.20;100555.63;2971651;80;21041;-71
2021/12/19 07:34:48;;;;;;;5.87;3.33;;;;;;;7.45;91.97;100554.39;2970184;80;20964;-71
2021/12/19 07:38:56;;;;;;;4.45;3.27;;;;;;;7.46;91.60;100525.65;2971251;80;20986;-71
2021/12/19 07:42:58;;;;;;;7.47;3.70;;;;;;;7.38;91.55;100541.19;2970349;80;21049;-73
2021/12/19 07:46:58;;;;;;;6.62;3.17;;;;;;;7.44;91.22;100530.20;2968847;80;21014;-72
2021/12/19 07:51:00;;;;;;;6.00;3.30;;;;;;;7.50;91.04;100509.97;2970937;80;21042;-71
2021/12/19 07:55:04;;;;;;;2.75;2.55;;;;;;;7.47;91.15;100503.55;2966605;80;21057;-73
2021/12/19 07:59:06;;;;;;;5.50;3.45;;;;;;;7.52;90.68;100506.73;2966061;80;21026;-73
2021/12/19 08:03:08;;;;;;;6.87;4.55;;;;;;;7.48;90.66;100492.02;2965931;80;21046;-74
2021/12/19 08:07:12;;;;;;;3.27;2.98;;;;;;;7.46;91.01;100498.34;2966033;80;21061;-74
2021/12/19 08:15:29;;;;;;;6.15;3.20;;;;;;;7.45;92.04;100508.56;2966057;80;21021;-73
2021/12/19 08:19:30;;;;;;;4.67;2.67;;;;;;;7.40;91.80;100515.02;2966130;80;21010;-74
2021/12/19 08:23:34;;;;;;;6.97;3.83;;;;;;;7.42;91.74;100497.23;2966162;80;21085;-74
2021/12/19 08:27:37;;;;;;;5.03;2.58;;;;;;;7.41;92.08;100525.11;2966745;80;21007;-73
2021/12/19 08:31:40;;;;;;;6.28;4.22;;;;;;;7.37;91.66;100491.86;2966375;80;21041;-73
2021/12/19 08:35:42;;;;;;;7.50;2.90;;;;;;;7.41;91.99;100486.73;2966427;80;21046;-72
2021/12/19 08:39:46;;;;;;;3.17;2.27;;;;;;;7.50;91.71;100498.05;2965941;80;21003;-73
2021/12/19 08:43:48;;;;;;;11.70;5.05;;;;;;;7.43;92.11;100480.86;2965947;80;21038;-73
2021/12/19 08:47:51;;;;;;;8.38;4.45;;;;;;;7.43;91.98;100498.92;2965843;80;21025;-73
2021/12/19 08:51:54;;;;;;;6.60;3.77;;;;;;;7.53;92.38;100515.52;2965833;80;21426;-72
2021/12/19 08:55:56;;;;;;;7.60;4.03;;;;;;;7.51;91.79;100506.38;2966318;80;21053;-73
2021/12/19 08:59:57;;;;;;;3.87;2.92;;;;;;;7.53;91.53;100519.02;2966440;80;21054;-70
2021/12/19 09:03:59;;;;;;;4.20;3.22;;;;;;;7.50;91.79;100506.00;2966193;80;21053;-73
2021/12/19 09:08:03;;;;;;;3.77;2.40;;;;;;;7.54;91.71;100494.71;2966451;80;21018;-72
2021/12/19 09:12:05;;;;;;;5.85;2.55;;;;;;;7.40;92.32;100498.27;2966246;80;21061;-73
2021/12/19 09:16:07;;;;;;;6.12;5.28;;;;;;;7.41;93.54;100477.47;2961383;80;21030;-73
2021/12/19 09:20:10;;;;;;;7.47;4.22;;;;;;;7.44;94.22;100505.05;2949423;80;21022;-71
2021/12/19 09:24:12;;;;;;;10.53;5.05;;;;;;;7.40;94.52;100504.88;2951963;80;21006;-74
2021/12/19 09:28:15;;;;;;;5.00;4.35;;;;;;;7.27;94.96;100496.89;2966796;80;21002;-73
2021/12/19 09:32:16;;;;;;;7.70;3.85;;;;;;;7.33;95.23;100487.72;2966330;80;21070;-73
2021/12/19 09:36:18;;;;;;;9.10;3.62;;;;;;;7.30;94.17;100471.55;2860645;83;20998;-73
2021/12/19 09:40:23;;;;;;;3.45;3.12;;;;;;;7.34;93.29;100473.53;2863263;83;21025;-72
2021/12/19 09:44:24;;;;;;;7.12;4.40;;;;;;;7.38;92.98;100481.64;2860340;83;21058;-72
2021/12/19 09:48:27;;;;;;;5.28;3.83;;;;;;;7.36;93.57;100468.98;2862655;83;30919;-73
2021/12/19 09:52:31;;;;;;;8.50;4.70;;;;;;;7.33;92.57;100477.97;2860101;83;21026;-72
2021/12/19 09:56:34;;;;;;;7.40;4.40;;;;;;;7.43;92.40;100470.27;2960644;79;21039;-73
2021/12/19 10:00:35;;;;;;;4.45;2.95;;;;;;;7.46;92.23;100472.71;2961019;80;21018;-72
2021/12/19 10:04:41;;;;;;;7.17;3.58;;;;;;;7.46;92.33;100454.19;2960876;80;21014;-71
2021/12/19 10:08:44;;;;;;;5.47;4.00;;;;;;;7.39;94.15;100455.55;2961334;80;21089;-73
2021/12/19 10:12:51;;;;;;;8.43;4.22;;;;;;;7.34;92.77;100463.78;2898977;82;21312;-73
2021/12/19 10:16:54;;;;;;;6.83;2.55;;;;;;;7.45;90.15;100467.05;2898811;82;20975;-73
2021/12/19 10:20:59;;;;;;;6.28;3.10;;;;;;;7.52;89.84;100451.15;2898974;82;21062;-70
2021/12/19 10:25:22;;;;;;;5.22;2.75;;;;;;;7.56;89.62;100453.96;2898798;82;22278;-73
2021/12/19 10:29:43;;;;;;;3.42;2.83;;;;;;;7.54;89.46;100446.59;2899436;82;21531;-70
2021/12/19 10:33:46;;;;;;;5.53;3.30;;;;;;;7.51;90.40;100446.81;2899215;82;21425;-73
2021/12/19 10:37:47;;;;;;;5.95;2.87;;;;;;;7.55;90.69;100439.03;2961520;80;21014;-71
2021/12/19 10:42:01;;;;;;;5.80;4.05;;;;;;;7.45;90.76;100422.05;2960917;80;21034;-72
2021/12/19 10:46:07;;;;;;;6.78;3.92;;;;;;;7.46;92.39;100425.07;2961385;80;21057;-72
2021/12/19 10:50:08;;;;;;;7.40;4.47;;;;;;;7.33;93.16;100421.56;2961364;80;21081;-71
2021/12/19 10:54:10;;;;;;;4.20;2.60;;;;;;;7.28;93.86;100409.95;2954990;80;20996;-73
2021/12/19 10:58:35;;;;;;;7.58;3.12;;;;;;;7.19;92.67;100406.11;2944754;80;20972;-73
2021/12/19 11:02:41;;;;;;;10.45;4.00;;;;;;;7.30;90.84;100401.44;2944915;81;21030;-73
2021/12/19 11:06:50;;;;;;;5.10;3.67;;;;;;;7.44;89.15;100397.86;2944863;81;21050;-73
2021/12/19 11:10:51;;;;;;;4.97;3.35;;;;;;;7.53;88.18;100384.48;2944804;81;21049;-73
2021/12/19 11:14:54;;;;;;;5.60;3.10;;;;;;;7.62;88.17;100369.77;2944932;81;21023;-73
2021/12/19 11:18:56;;;;;;;5.65;3.70;;;;;;;7.68;88.29;100374.18;2945321;81;21066;-73
2021/12/19 11:22:58;;;;;;;12.25;3.72;;;;;;;7.52;90.20;100357.18;2945019;80;21039;-72
2021/12/19 11:27:04;;;;;;;8.28;5.75;;;;;;;7.41;91.17;100346.00;2944786;81;20967;-72
2021/12/19 11:31:06;;;;;;;6.72;4.25;;;;;;;7.43;92.03;100335.29;2945116;80;21038;-72
2021/12/19 11:35:13;;;;;;;16.82;6.67;;;;;;;7.36;92.09;100339.31;2944955;81;21046;-72
2021/12/19 11:39:16;;;;;;;10.13;6.60;;;;;;;7.38;92.44;100343.56;2944934;80;21047;-73
2021/12/19 11:43:19;;;;;;;11.15;4.20;;;;;;;7.47;92.27;100330.64;2944868;80;21027;-72
2021/12/19 11:47:47;;;;;;;5.53;4.75;;;;;;;7.47;90.57;100315.63;2944659;81;21495;-72
2021/12/19 11:51:48;;;;;;;4.00;3.27;;;;;;;7.53;90.59;100304.61;2944523;81;21042;-72
2021/12/19 11:55:53;;;;;;;10.78;4.60;;;;;;;7.55;90.22;100303.16;2956313;80;21105;-73
2021/12/19 12:00:02;;;;;;;10.13;6.40;;;;;;;7.62;90.50;100306.23;2961609;80;21279;-72
2021/12/19 12:04:15;;;;;;;12.70;4.72;;;;;;;7.56;90.41;100312.33;2954195;80;21574;-72
2021/12/19 12:08:25;;;;;;;7.83;4.10;;;;;;;7.62;89.77;100293.00;2961376;80;21038;-72
2021/12/19 12:12:35;;;;;;;6.25;3.27;;;;;;;7.61;89.47;100286.02;2961507;80;21046;-72
2021/12/19 12:16:39;;;;;;;3.37;2.60;;;;;;;7.66;89.30;100279.91;2961191;80;21003;-73
2021/12/19 12:20:38;;;;;;;4.47;2.90;;;;;;;7.52;89.66;100267.18;2961578;80;21057;-72
2021/12/19 12:24:45;;;;;;;6.78;3.90;;;;;;;7.56;89.68;100262.50;2961499;80;21073;-71
2021/12/19 12:28:46;;;;;;;5.37;2.50;;;;;;;7.53;89.39;100262.25;2953734;80;21018;-73
2021/12/19 12:32:48;;;;;;;5.85;3.85;;;;;;;7.55;89.14;100254.19;2961457;80;21577;-72
2021/12/19 12:36:51;;;;;;;4.25;2.52;;;;;;;7.55;88.29;100231.23;2961265;80;21116;-73
2021/12/19 12:40:56;;;;;;;6.47;4.10;;;;;;;7.58;87.83;100236.30;2961419;80;20998;-72
2021/12/19 12:45:04;;;;;;;4.40;3.00;;;;;;;7.74;87.41;100237.02;2961360;80;21050;-73
2021/12/19 12:49:19;;;;;;;6.40;2.90;;;;;;;7.76;85.92;100208.62;2961355;80;21038;-71
2021/12/19 12:53:46;;;;;;;1.80;1.55;;;;;;;7.72;85.37;100215.46;2961398;80;21065;-72
2021/12/19 12:57:48;;;;;;;3.02;1.98;;;;;;;7.81;85.40;100211.31;2944995;81;21039;-72
2021/12/19 13:02:15;;;;;;;3.15;1.40;;;;;;;7.81;85.72;100202.54;2945082;80;21035;-72
2021/12/19 13:06:43;;;;;;;4.25;2.33;;;;;;;7.73;86.24;100203.09;2945234;80;21231;-73
2021/12/19 13:10:52;;;;;;;8.15;3.37;;;;;;;7.60;88.71;100205.77;2944834;81;21061;-72
2021/12/19 13:15:01;;;;;;;4.55;3.98;;;;;;;7.55;90.91;100203.43;2945246;81;21078;-73
2021/12/19 13:19:02;;;;;;;6.72;4.72;;;;;;;7.49;93.24;100209.17;2944848;81;21260;-73
2021/12/19 13:23:04;;;;;;;6.87;4.47;;;;;;;7.37;94.18;100206.05;2944890;81;21066;-72
2021/12/19 13:27:16;;;;;;;7.95;4.22;;;;;;;7.26;95.59;100202.33;2944732;81;21024;-73
2021/12/19 13:31:23;;;;;;;5.00;4.50;;;;;;;7.23;95.57;100181.88;2944781;81;20998;-73
2021/12/19 13:35:33;;;;;;;3.35;2.55;;;;;;;7.17;96.31;100164.62;2944671;81;21090;-73
2021/12/19 13:39:35;;;;;;;8.35;4.35;;;;;;;7.10;96.15;100172.63;2944692;80;21007;-73
2021/12/19 13:43:40;;;;;;;3.92;3.17;;;;;;;7.05;96.36;100177.36;2944366;80;21055;-72
2021/12/19 13:47:41;;;;;;;4.20;3.08;;;;;;;7.10;96.09;100169.98;2944587;81;21026;-72
2021/12/19 13:51:43;;;;;;;8.03;3.17;;;;;;;7.05;94.96;100167.65;2944592;80;20986;-70
2021/12/19 13:55:56;;;;;;;4.35;3.47;;;;;;;7.02;95.43;100182.87;2949432;80;21027;-73
2021/12/19 13:59:58;;;;;;;5.08;3.20;;;;;;;7.10;94.65;100173.45;2952905;80;21062;-72
2021/12/19 14:04:05;;;;;;;3.92;2.50;;;;;;;7.10;94.15;100182.72;2953516;80;21584;-70
2021/12/19 14:08:25;;;;;;;3.87;2.95;;;;;;;7.11;94.26;100188.86;2953558;80;21641;-73
2021/12/19 14:12:50;;;;;;;2.70;1.90;;;;;;;7.17;94.07;100188.89;2953621;80;20983;-73
2021/12/19 14:16:38;;;;;;;1.45;1.32;;;;;;;7.11;93.75;100162.41;2953203;80;21062;-72
2021/12/19 14:20:40;;;;;;;3.05;2.72;;;;;;;7.08;92.43;100150.73;2950252;80;21030;-73
2021/12/19 14:25:00;;;;;;;2.62;1.30;;;;;;;7.13;92.24;100168.44;2953184;80;21047;-72
2021/12/19 14:29:04;;;;;;;1.45;1.35;;;;;;;7.05;92.06;100149.13;2953369;80;21006;-73
2021/12/19 14:33:06;;;;;;;4.42;2.10;;;;;;;7.15;92.05;100149.34;2927178;80;21026;-72
2021/12/19 14:37:27;;;;;;;1.70;1.50;;;;;;;7.13;92.09;100151.25;2953235;80;21046;-73
2021/12/19 14:41:30;;;;;;;1.67;1.00;;;;;;;7.04;91.82;100128.06;2953397;80;20991;-72
2021/12/19 14:45:46;;;;;;;3.87;2.10;;;;;;;7.02;91.87;100116.75;2953530;80;21304;-73
2021/12/19 14:49:48;;;;;;;2.80;1.27;;;;;;;7.09;91.55;100143.16;2953430;80;21530;-73
2021/12/19 14:54:02;;;;;;;3.20;2.10;;;;;;;7.02;92.01;100128.19;2953159;80;21303;-72
2021/12/19 14:58:04;;;;;;;2.10;1.05;;;;;;;6.98;92.53;100134.16;2953442;80;21645;-73
2021/12/19 15:02:06;;;;;;;2.65;1.92;;;;;;;6.93;92.45;100148.19;2952906;80;21041;-73
2021/12/19 15:06:11;;;;;;;3.05;2.27;;;;;;;6.99;92.34;100145.59;2953140;80;21022;-72
2021/12/19 15:10:16;;;;;;;1.27;1.17;;;;;;;7.00;91.90;100146.80;2953393;80;21551;-72
2021/12/19 15:14:18;;;;;;;6.00;3.27;;;;;;;6.94;91.54;100136.66;2953485;80;20961;-73
2021/12/19 15:18:20;;;;;;;7.75;4.47;;;;;;;6.95;91.69;100142.77;2953871;80;21034;-73
2021/12/19 15:22:21;;;;;;;5.15;2.00;;;;;;;6.93;91.70;100152.15;2953463;80;21062;-69
2021/12/19 15:26:25;;;;;;;2.45;1.62;;;;;;;6.93;92.07;100127.48;2945475;80;21035;-71
2021/12/19 15:30:27;;;;;;;4.40;2.17;;;;;;;6.88;92.61;100141.52;2915193;81;21032;-70
2021/12/19 15:34:29;;;;;;;3.70;1.80;;;;;;;6.91;93.11;100130.72;2856123;83;20959;-68
2021/12/19 15:38:31;;;;;;;1.95;1.85;;;;;;;6.99;93.05;100127.92;2856023;83;21074;-68
2021/12/19 15:42:33;;;;;;;5.40;4.37;;;;;;;7.06;92.78;100137.59;2855425;82;21035;-69
2021/12/19 15:46:35;;;;;;;6.50;3.52;;;;;;;7.09;93.34;100142.67;2856154;83;21003;-69
2021/12/19 15:50:37;;;;;;;4.08;2.58;;;;;;;7.09;93.66;100150.61;2856136;83;21073;-70
2021/12/19 15:54:39;;;;;;;1.80;1.35;;;;;;;7.02;93.92;100143.20;2860880;82;21062;-70
2021/12/19 15:58:41;;;;;;;3.62;2.27;;;;;;;7.07;94.10;100135.78;2962951;80;21046;-69
2021/12/19 16:02:44;;;;;;;6.15;4.33;;;;;;;7.08;93.72;100145.44;2961884;80;21042;-70
2021/12/19 16:06:45;;;;;;;5.87;4.53;;;;;;;7.13;93.80;100131.41;2898731;82;21019;-69
2021/12/19 16:10:47;;;;;;;5.33;3.60;;;;;;;7.07;94.57;100143.72;2962673;80;21038;-70
2021/12/19 16:14:49;;;;;;;3.08;2.30;;;;;;;7.10;94.43;100114.44;2962046;80;20983;-70
2021/12/19 16:18:50;;;;;;;8.00;4.15;;;;;;;7.12;94.26;100128.39;2962161;80;21314;-70
2021/12/19 16:22:54;;;;;;;4.25;3.62;;;;;;;7.18;94.44;100112.58;2961590;80;21066;-69
2021/12/19 16:26:57;;;;;;;4.70;3.67;;;;;;;7.12;96.23;100123.11;2946507;80;21082;-70
2021/12/19 16:30:59;;;;;;;3.52;3.22;;;;;;;7.02;97.19;100111.00;2860769;82;21055;-70
2021/12/19 16:35:01;;;;;;;6.92;3.72;;;;;;;7.07;97.02;100146.36;2925147;80;21038;-70
2021/12/19 16:39:09;;;;;;;5.47;3.35;;;;;;;6.94;97.54;100100.95;2914542;80;21042;-70
2021/12/19 16:47:29;;;;;;;5.05;4.00;;;;;;;6.93;98.83;100095.30;2944855;80;20994;-71
2021/12/19 16:51:31;;;;;;;7.92;3.70;;;;;;;6.96;98.84;100108.30;2898928;80;21027;-72
2021/12/19 16:55:33;;;;;;;22.22;7.92;;;;;;;6.99;98.52;100104.11;2902171;80;21018;-72
2021/12/19 16:59:35;;;;;;;7.28;3.70;;;;;;;6.97;98.85;100107.34;2867628;82;21035;-71
2021/12/19 17:03:38;;;;;;;8.35;4.20;;;;;;;7.04;98.53;100095.01;2828285;83;21062;-71
2021/12/19 17:07:41;;;;;;;5.35;3.55;;;;;;;7.00;98.37;100074.56;2872252;82;21066;-71
2021/12/19 17:11:51;;;;;;;10.88;5.85;;;;;;;6.90;98.05;100070.39;2891023;82;21038;-71
2021/12/19 17:15:47;;;;;;;3.95;3.33;;;;;;;6.89;97.76;100059.45;2813430;83;20998;-70
2021/12/19 17:19:51;;;;;;;8.48;3.83;;;;;;;6.85;98.39;100074.67;2831961;83;21026;-70
2021/12/19 17:23:53;;;;;;;5.00;3.55;;;;;;;6.80;99.33;100071.52;2811570;84;21058;-70
2021/12/19 17:27:55;;;;;;;5.97;3.15;;;;;;;6.89;99.08;100067.38;2859281;83;21031;-71
2021/12/19 17:31:57;;;;;;;4.50;2.92;;;;;;;6.94;99.10;100069.68;2811191;84;20999;-70
2021/12/19 17:35:58;;;;;;;3.25;2.65;;;;;;;6.97;99.13;100046.52;2825793;83;21011;-70
2021/12/19 17:40:08;;;;;;;2.45;2.25;;;;;;;6.97;98.83;100038.59;2908880;82;21030;-69
2021/12/19 17:44:07;;;;;;;2.35;2.15;;;;;;;7.00;99.00;100059.52;2864597;82;21082;-70
2021/12/19 17:48:09;;;;;;;7.25;3.62;;;;;;;6.98;98.33;100053.50;2909446;81;20967;-69
2021/12/19 17:52:10;;;;;;;5.78;3.22;;;;;;;7.08;98.05;100051.55;2909243;82;21030;-70
2021/12/19 17:56:13;;;;;;;5.87;3.85;;;;;;;7.12;97.98;100051.19;2879600;82;21074;-70
2021/12/19 18:00:17;;;;;;;6.65;5.00;;;;;;;7.14;97.58;100064.32;2816483;84;21090;-70
2021/12/19 18:04:21;;;;;;;8.13;5.87;;;;;;;7.23;96.90;100074.73;2814017;84;21031;-70
2021/12/19 18:08:25;;;;;;;6.05;4.35;;;;;;;7.08;97.37;100066.09;2826035;83;21035;-70
2021/12/19 18:12:27;;;;;;;2.72;2.02;;;;;;;7.24;96.80;100083.86;2816242;84;21436;-70
2021/12/19 18:16:30;;;;;;;4.90;3.00;;;;;;;7.15;96.91;100095.94;2864198;83;21081;-70
2021/12/19 18:20:32;;;;;;;5.12;4.10;;;;;;;7.15;96.95;100097.27;2864600;83;21066;-70
2021/12/19 18:24:34;;;;;;;2.67;2.35;;;;;;;7.26;96.23;100087.73;2864473;83;21042;-70
2021/12/19 18:28:39;;;;;;;1.92;1.15;;;;;;;7.18;96.26;100109.44;2864733;83;21011;-71
2021/12/19 18:32:41;;;;;;;1.80;1.50;;;;;;;7.18;95.20;100105.96;2865670;81;21062;-70
2021/12/19 18:36:46;;;;;;;2.35;1.15;;;;;;;7.13;95.14;100083.80;2914324;81;21050;-70
2021/12/19 18:40:49;;;;;;;3.10;1.70;;;;;;;7.11;95.35;100114.80;2914049;81;21023;-70
2021/12/19 18:44:57;;;;;;;3.62;1.62;;;;;;;7.14;95.10;100111.44;2913512;81;20999;-70
2021/12/19 18:57:13;;;;;;;4.17;2.02;;;;;;;6.89;92.42;100095.61;2871903;81;21085;-70
2021/12/19 19:01:22;;;;;;;7.10;2.45;;;;;;;6.87;92.72;100102.31;2855209;83;21101;-69
2021/12/19 19:05:19;;;;;;;2.30;1.50;;;;;;;6.64;93.84;100099.95;2853938;83;21006;-70
2021/12/19 19:09:21;;;;;;;6.22;1.90;;;;;;;6.47;93.22;100105.05;2875048;82;21078;-69
2021/12/19 19:13:23;;;;;;;5.15;2.55;;;;;;;6.46;92.86;100111.28;2900645;82;21043;-70
2021/12/19 19:17:24;;;;;;;1.95;1.80;;;;;;;6.25;93.05;100119.24;2882013;81;21078;-69
2021/12/19 19:21:26;;;;;;;6.42;4.12;;;;;;;6.25;92.54;100125.84;2958155;80;21042;-70
2021/12/19 19:25:28;;;;;;;3.90;2.40;;;;;;;6.28;91.37;100137.98;2879165;82;21039;-69
2021/12/19 19:29:30;;;;;;;5.28;3.15;;;;;;;6.28;90.48;100141.94;2917780;79;21003;-68
2021/12/19 19:33:34;;;;;;;21.75;3.08;;;;;;;6.20;89.54;100158.33;2945635;80;21246;-68
2021/12/19 19:37:44;;;;;;;5.87;2.30;;;;;;;6.20;89.06;100162.29;2870238;82;21007;-68
2021/12/19 19:50:14;;;;;;;7.93;2.17;;;;;;;6.02;88.65;100184.13;2959288;80;20993;-68
2021/12/19 19:54:20;;;;;;;6.25;2.67;;;;;;;5.97;88.44;100191.47;2961527;80;21030;-72
2021/12/19 19:58:22;;;;;;;3.35;3.05;;;;;;;5.91;88.37;100194.52;2959830;80;20999;-72
2021/12/19 20:02:24;;;;;;;9.48;4.22;;;;;;;5.86;88.17;100208.00;2958643;80;21113;-73
2021/12/19 20:06:27;;;;;;;4.12;3.72;;;;;;;5.84;88.27;100230.52;2931200;80;21036;-73
2021/12/19 20:10:29;;;;;;;7.55;4.47;;;;;;;5.74;88.59;100224.14;2906527;82;21056;-72
2021/12/19 20:14:32;;;;;;;7.72;3.90;;;;;;;5.77;88.71;100229.67;2906903;82;21731;-73
2021/12/19 20:18:34;;;;;;;9.15;4.28;;;;;;;5.73;88.57;100229.05;2906756;82;21028;-72
2021/12/19 20:22:35;;;;;;;7.12;3.80;;;;;;;5.62;88.44;100238.95;2912724;80;21035;-68
2021/12/19 20:26:37;;;;;;;8.05;4.37;;;;;;;5.62;88.33;100249.97;2916236;80;21010;-68
2021/12/19 20:30:39;;;;;;;5.10;4.03;;;;;;;5.66;88.02;100263.34;2941853;79;21066;-71
2021/12/19 20:34:41;;;;;;;7.03;3.60;;;;;;;5.58;87.78;100255.89;2924706;80;21010;-69
2021/12/19 20:38:44;;;;;;;9.83;5.05;;;;;;;5.49;87.56;100258.63;2921541;80;21006;-72